Time;durP1;ratioP1;P1;durP2;ratioP2;P2;SDS_P1;SDS_P2;PMS_P1;PMS_P2;Temp;Humidity;BMP_temperature;BMP_pressure;BME280_temperature;BME280_humidity;BME280_pressure;Samples;Min_cycle;Max_cycle;Signal;HPM_P1;HPM_P2
2022/12/05 00:01:26;;;;;;;30.92;15.85;;;5.00;99.90;;;;;;4971529;28;20093;-63
2022/12/05 00:03:54;;;;;;;29.02;15.23;;;5.00;99.90;;;;;;4970779;28;20050;-62
2022/12/05 00:06:23;;;;;;;30.83;15.70;;;5.00;99.90;;;;;;4959602;28;20418;-62
2022/12/05 00:08:50;;;;;;;27.90;15.50;;;5.00;99.90;;;;;;4967963;28;20082;-61
2022/12/05 00:11:25;;;;;;;30.77;14.32;;;5.00;99.90;;;;;;4967797;28;20082;-61
2022/12/05 00:13:52;;;;;;;31.15;14.63;;;5.00;99.90;;;;;;4959852;28;20137;-61
2022/12/05 00:16:20;;;;;;;32.30;15.88;;;5.10;99.90;;;;;;4969942;28;20078;-62
2022/12/05 00:18:47;;;;;;;31.55;15.00;;;5.10;99.90;;;;;;4967321;28;20047;-61
2022/12/05 00:21:16;;;;;;;23.40;13.80;;;5.00;99.90;;;;;;4962187;28;20054;-62
2022/12/05 00:23:43;;;;;;;47.50;16.77;;;4.90;99.90;;;;;;4957784;28;20078;-62
2022/12/05 00:26:10;;;;;;;30.33;14.75;;;5.00;99.90;;;;;;4969307;28;20125;-61
2022/12/05 00:28:37;;;;;;;29.83;16.10;;;5.00;99.90;;;;;;4962963;28;20153;-62
2022/12/05 00:31:05;;;;;;;25.48;14.30;;;5.00;99.90;;;;;;4966041;28;20078;-62
2022/12/05 00:33:32;;;;;;;30.35;14.25;;;5.00;99.90;;;;;;4961782;28;20085;-61
2022/12/05 00:36:06;;;;;;;31.05;14.77;;;5.00;99.90;;;;;;4982328;28;20078;-62
2022/12/05 00:38:33;;;;;;;28.38;15.98;;;5.00;99.90;;;;;;4961701;28;20565;-62
2022/12/05 00:41:13;;;;;;;26.85;14.80;;;5.10;99.90;;;;;;4962399;28;20500;-61
2022/12/05 00:43:40;;;;;;;27.90;15.65;;;5.00;99.90;;;;;;4970441;28;20137;-61
2022/12/05 00:46:16;;;;;;;26.98;15.45;;;5.00;99.90;;;;;;4969090;28;20498;-61
2022/12/05 00:48:43;;;;;;;27.77;16.00;;;5.00;99.90;;;;;;4970668;28;20054;-61
2022/12/05 00:51:10;;;;;;;29.27;14.90;;;5.00;99.90;;;;;;4970436;28;20093;-62
2022/12/05 00:53:37;;;;;;;29.70;14.02;;;5.10;99.90;;;;;;4984702;28;20214;-62
2022/12/05 00:56:12;;;;;;;30.63;14.82;;;5.10;99.90;;;;;;4970171;28;20078;-63
2022/12/05 00:58:39;;;;;;;27.02;15.57;;;5.10;99.90;;;;;;4970674;28;20477;-61
2022/12/05 01:01:08;;;;;;;27.17;14.63;;;5.10;99.90;;;;;;4985104;28;20078;-61
2022/12/05 01:03:35;;;;;;;26.48;15.50;;;5.10;99.90;;;;;;4970379;28;20055;-61
2022/12/05 01:06:02;;;;;;;28.15;15.00;;;5.10;99.90;;;;;;4970080;28;20046;-61
2022/12/05 01:08:28;;;;;;;35.35;15.68;;;5.10;99.90;;;;;;4970000;28;20137;-61
2022/12/05 01:10:55;;;;;;;35.75;16.80;;;5.00;99.90;;;;;;4969912;28;20086;-63
2022/12/05 01:13:22;;;;;;;30.27;15.48;;;5.00;99.90;;;;;;4959303;28;20047;-62
2022/12/05 01:15:49;;;;;;;29.33;16.15;;;5.00;99.90;;;;;;4957545;28;20050;-63
2022/12/05 01:18:16;;;;;;;26.92;13.95;;;5.00;99.90;;;;;;4969952;28;20138;-63
2022/12/05 01:20:44;;;;;;;29.98;15.40;;;5.00;99.90;;;;;;4970026;28;20505;-60
2022/12/05 01:23:11;;;;;;;33.50;16.67;;;5.00;99.90;;;;;;4969351;28;20158;-60
2022/12/05 01:25:41;;;;;;;28.67;15.10;;;5.00;99.90;;;;;;4969132;28;20051;-61
2022/12/05 01:28:08;;;;;;;29.98;15.00;;;5.00;99.90;;;;;;4968441;28;20136;-61
2022/12/05 01:30:38;;;;;;;27.55;15.48;;;5.10;99.90;;;;;;4968479;28;20601;-61
2022/12/05 01:33:05;;;;;;;27.83;16.02;;;5.10;99.90;;;;;;4969136;28;20082;-61
2022/12/05 01:35:33;;;;;;;27.30;15.50;;;5.10;99.90;;;;;;4969733;28;20556;-62
2022/12/05 01:38:00;;;;;;;28.33;15.35;;;5.10;99.90;;;;;;4968626;28;20047;-61
2022/12/05 01:40:27;;;;;;;34.03;14.70;;;5.10;99.90;;;;;;4970110;28;20051;-61
2022/12/05 01:42:54;;;;;;;34.90;15.00;;;5.10;99.90;;;;;;4969295;28;20050;-62
2022/12/05 01:45:31;;;;;;;30.45;15.85;;;5.10;99.90;;;;;;4967651;28;20058;-61
2022/12/05 01:48:02;;;;;;;26.50;15.32;;;5.10;99.90;;;;;;4968718;28;20082;-61
2022/12/05 01:50:29;;;;;;;31.33;16.17;;;5.10;99.90;;;;;;4968376;28;20114;-61
2022/12/05 01:52:56;;;;;;;27.35;15.13;;;5.20;99.90;;;;;;4969195;28;20134;-61
2022/12/05 01:55:23;;;;;;;30.08;14.20;;;5.20;99.90;;;;;;4968899;28;20101;-62
2022/12/05 01:57:49;;;;;;;26.13;14.85;;;5.20;99.90;;;;;;4967965;28;20094;-61
2022/12/05 02:00:17;;;;;;;24.63;14.80;;;5.20;99.90;;;;;;4968441;28;20081;-62
2022/12/05 02:02:53;;;;;;;29.95;15.75;;;5.20;99.90;;;;;;4963752;28;20090;-61
2022/12/05 02:05:26;;;;;;;30.02;15.60;;;5.20;99.90;;;;;;4964716;28;20050;-62
2022/12/05 02:07:53;;;;;;;26.48;15.02;;;5.20;99.90;;;;;;4983896;28;20105;-61
2022/12/05 02:10:20;;;;;;;27.23;14.40;;;5.20;99.90;;;;;;4968224;28;20262;-62
2022/12/05 02:12:47;;;;;;;28.00;15.00;;;5.20;99.90;;;;;;4969227;28;20082;-61
2022/12/05 02:15:38;;;;;;;27.98;15.10;;;5.20;99.90;;;;;;4968134;28;20051;-64
2022/12/05 02:18:20;;;;;;;25.08;16.10;;;5.20;99.90;;;;;;4967881;28;20601;-61
2022/12/05 02:20:56;;;;;;;27.27;15.40;;;5.20;99.90;;;;;;4967799;28;20489;-62
2022/12/05 02:23:32;;;;;;;24.58;15.45;;;5.30;99.90;;;;;;4968649;28;20124;-61
2022/12/05 02:26:34;;;;;;;27.67;15.02;;;5.30;99.90;;;;;;4983774;28;20086;-61
2022/12/05 02:29:13;;;;;;;24.08;13.55;;;5.30;99.90;;;;;;4968079;28;20137;-60
2022/12/05 02:31:46;;;;;;;28.77;14.07;;;5.30;99.90;;;;;;4950040;29;20138;-60
2022/12/05 02:34:21;;;;;;;41.42;17.40;;;5.40;99.90;;;;;;4964341;28;20054;-62
2022/12/05 02:36:54;;;;;;;26.15;13.77;;;5.40;99.90;;;;;;4968133;28;20146;-61
2022/12/05 02:39:25;;;;;;;24.95;13.95;;;5.30;99.90;;;;;;4971576;28;20046;-61
2022/12/05 02:41:57;;;;;;;29.50;14.55;;;5.40;99.90;;;;;;4971808;28;20075;-61
2022/12/05 02:44:30;;;;;;;26.13;14.23;;;5.40;99.90;;;;;;4972603;28;20530;-61
2022/12/05 02:46:57;;;;;;;29.90;16.25;;;5.30;99.90;;;;;;4971861;28;20090;-61
2022/12/05 02:49:25;;;;;;;28.85;14.55;;;5.40;99.90;;;;;;4971470;28;20481;-61
2022/12/05 02:51:56;;;;;;;26.70;14.57;;;5.40;99.90;;;;;;4971912;28;20154;-61
2022/12/05 02:54:25;;;;;;;26.48;14.23;;;5.40;99.90;;;;;;4971121;28;20058;-61
2022/12/05 02:56:52;;;;;;;20.77;13.13;;;5.40;99.90;;;;;;4971901;28;20047;-62
2022/12/05 02:59:19;;;;;;;28.15;16.00;;;5.40;99.90;;;;;;4971152;28;20051;-61
2022/12/05 03:01:49;;;;;;;31.17;13.75;;;5.40;99.90;;;;;;4972577;28;20051;-62
2022/12/05 03:04:17;;;;;;;23.60;13.80;;;5.40;99.90;;;;;;4963284;28;20133;-61
2022/12/05 03:06:48;;;;;;;24.45;14.23;;;5.40;99.90;;;;;;4972624;28;20065;-61
2022/12/05 03:09:29;;;;;;;21.10;13.90;;;5.40;99.90;;;;;;4972332;28;20130;-61
2022/12/05 03:12:04;;;;;;;23.65;13.55;;;5.40;99.90;;;;;;4973483;28;20093;-61
2022/12/05 03:14:34;;;;;;;19.60;12.80;;;5.40;99.90;;;;;;4970998;28;20394;-62
2022/12/05 03:17:02;;;;;;;28.65;14.18;;;5.40;99.90;;;;;;4971472;28;20082;-61
2022/12/05 03:19:33;;;;;;;22.98;12.63;;;5.40;99.90;;;;;;4969303;28;20055;-63
2022/12/05 03:22:08;;;;;;;24.92;12.98;;;5.40;99.90;;;;;;4972163;28;20102;-61
2022/12/05 03:24:36;;;;;;;25.15;13.20;;;5.40;99.90;;;;;;4970835;28;20259;-61
2022/12/05 03:27:22;;;;;;;21.90;12.50;;;5.40;99.90;;;;;;4971305;28;20043;-61
2022/12/05 03:30:04;;;;;;;25.33;14.35;;;5.40;99.90;;;;;;4970429;28;20058;-61
2022/12/05 03:32:54;;;;;;;26.60;14.32;;;5.40;99.90;;;;;;4971017;28;20074;-62
2022/12/05 03:35:44;;;;;;;23.02;12.63;;;5.40;99.90;;;;;;4970726;28;20093;-61
2022/12/05 03:38:24;;;;;;;17.67;11.63;;;5.40;99.90;;;;;;4963185;28;20042;-61
2022/12/05 03:41:10;;;;;;;21.25;12.88;;;5.40;99.90;;;;;;4961409;28;20049;-61
2022/12/05 03:43:55;;;;;;;18.73;11.60;;;5.50;99.90;;;;;;4971799;28;20149;-62
2022/12/05 03:46:23;;;;;;;21.92;11.55;;;5.50;99.90;;;;;;4970596;28;20130;-61
2022/12/05 03:49:16;;;;;;;23.73;12.63;;;5.50;99.90;;;;;;4969497;28;20125;-61
2022/12/05 03:51:55;;;;;;;24.95;11.10;;;5.40;99.90;;;;;;4970746;28;20086;-61
2022/12/05 03:54:24;;;;;;;29.83;13.15;;;5.40;99.90;;;;;;4971643;28;20093;-61
2022/12/05 03:57:01;;;;;;;29.90;14.18;;;5.50;99.90;;;;;;4970652;28;20082;-61
2022/12/05 03:59:52;;;;;;;23.42;11.10;;;5.40;99.90;;;;;;4970834;28;20054;-62
2022/12/05 04:02:23;;;;;;;24.02;12.98;;;5.40;99.90;;;;;;4972859;28;20590;-61
2022/12/05 04:04:57;;;;;;;24.38;12.85;;;5.40;99.90;;;;;;4961846;28;20125;-61
2022/12/05 04:07:24;;;;;;;26.17;13.43;;;5.40;99.90;;;;;;4971205;28;20061;-61
2022/12/05 04:09:56;;;;;;;28.17;13.82;;;5.40;99.90;;;;;;4970444;28;20146;-62
2022/12/05 04:12:26;;;;;;;20.15;12.23;;;5.40;99.90;;;;;;4970832;28;20042;-62
2022/12/05 04:14:56;;;;;;;22.55;11.38;;;5.40;99.90;;;;;;4970745;28;20082;-61
2022/12/05 04:17:44;;;;;;;21.15;11.75;;;5.50;99.90;;;;;;4964623;28;20134;-62
2022/12/05 04:23:24;;;;;;;26.40;13.57;;;5.60;99.90;;;;;;4970821;28;20070;-61
2022/12/05 04:26:01;;;;;;;18.50;11.02;;;5.50;99.90;;;;;;4970120;28;20070;-61
2022/12/05 04:28:30;;;;;;;20.55;11.77;;;5.50;99.90;;;;;;4970891;28;20047;-61
2022/12/05 04:31:23;;;;;;;28.08;12.98;;;5.50;99.90;;;;;;4971290;28;20059;-61
2022/12/05 04:33:59;;;;;;;18.50;11.27;;;5.50;99.90;;;;;;4969635;28;20126;-61
2022/12/05 04:36:31;;;;;;;20.05;11.50;;;5.60;99.90;;;;;;4969811;28;20133;-61
2022/12/05 04:39:02;;;;;;;22.33;12.05;;;5.60;99.90;;;;;;4970817;28;20057;-60
2022/12/05 04:41:35;;;;;;;22.40;11.73;;;5.60;99.90;;;;;;4970037;28;20063;-61
2022/12/05 04:44:05;;;;;;;26.73;12.35;;;5.60;99.90;;;;;;4969474;28;20074;-61
2022/12/05 04:46:32;;;;;;;23.20;11.45;;;5.60;99.90;;;;;;4970241;28;20105;-61
2022/12/05 04:48:59;;;;;;;20.92;11.82;;;5.60;99.90;;;;;;4969471;28;20057;-61
2022/12/05 04:51:28;;;;;;;21.13;12.15;;;5.60;99.90;;;;;;4969263;28;20102;-62
2022/12/05 04:53:58;;;;;;;19.38;11.13;;;5.50;99.90;;;;;;4969516;28;20050;-60
2022/12/05 04:56:26;;;;;;;27.67;13.88;;;5.50;99.90;;;;;;4970459;28;20062;-61
2022/12/05 04:58:53;;;;;;;18.83;11.77;;;5.60;99.90;;;;;;4970513;28;20096;-61
2022/12/05 05:01:34;;;;;;;23.08;11.93;;;5.60;99.90;;;;;;4970566;28;20082;-61
2022/12/05 05:04:08;;;;;;;18.92;11.38;;;5.60;99.90;;;;;;4964985;28;20049;-61
2022/12/05 05:06:39;;;;;;;18.98;11.20;;;5.60;99.90;;;;;;4969367;28;20512;-61
2022/12/05 05:09:05;;;;;;;21.98;12.15;;;5.60;99.90;;;;;;4968769;28;20081;-61
2022/12/05 05:11:33;;;;;;;20.10;11.93;;;5.60;99.90;;;;;;4970396;28;20748;-61
2022/12/05 05:14:00;;;;;;;22.63;11.88;;;5.60;99.90;;;;;;4970181;28;20455;-61
2022/12/05 05:16:38;;;;;;;22.67;10.20;;;5.70;99.90;;;;;;4968396;28;20055;-61
2022/12/05 05:19:05;;;;;;;23.10;11.98;;;5.70;99.90;;;;;;4970133;28;20150;-61
2022/12/05 05:21:36;;;;;;;37.17;14.10;;;5.70;99.90;;;;;;4969841;28;20078;-60
2022/12/05 05:24:03;;;;;;;19.90;11.38;;;5.70;99.90;;;;;;4969824;28;20497;-61
2022/12/05 05:26:32;;;;;;;20.70;10.15;;;5.80;99.90;;;;;;4969816;28;20592;-61
2022/12/05 05:28:58;;;;;;;19.45;10.75;;;5.70;99.90;;;;;;4969343;28;20146;-61
2022/12/05 05:31:25;;;;;;;24.25;11.88;;;5.70;99.90;;;;;;4970053;28;20058;-61
2022/12/05 05:33:54;;;;;;;22.38;11.38;;;5.70;99.90;;;;;;4969641;28;20525;-61
2022/12/05 05:36:21;;;;;;;20.30;9.77;;;5.70;99.90;;;;;;4968827;28;20067;-61
2022/12/05 05:38:49;;;;;;;18.60;10.32;;;5.80;99.90;;;;;;4952257;28;20499;-61
2022/12/05 05:41:18;;;;;;;17.35;9.52;;;5.80;99.90;;;;;;4969706;28;20049;-61
2022/12/05 05:43:45;;;;;;;17.20;10.63;;;5.80;99.90;;;;;;4969594;28;20078;-61
2022/12/05 05:46:12;;;;;;;17.88;10.60;;;5.80;99.90;;;;;;4969515;28;20097;-61
2022/12/05 05:48:39;;;;;;;23.90;10.77;;;5.80;99.90;;;;;;4969458;28;20050;-61
2022/12/05 05:51:06;;;;;;;18.15;11.38;;;5.80;99.90;;;;;;4968785;28;20093;-61
2022/12/05 05:53:33;;;;;;;20.40;12.10;;;5.80;99.90;;;;;;4969478;28;20129;-61
2022/12/05 05:56:04;;;;;;;24.80;11.77;;;5.80;99.90;;;;;;4968094;28;20051;-61
2022/12/05 05:58:31;;;;;;;20.83;10.95;;;5.80;99.90;;;;;;4969613;28;20097;-61
2022/12/05 06:01:09;;;;;;;20.67;10.55;;;5.90;99.90;;;;;;4969198;28;20438;-61
2022/12/05 06:03:36;;;;;;;19.60;10.88;;;5.90;99.90;;;;;;4969309;28;20051;-61
2022/12/05 06:06:05;;;;;;;25.38;11.07;;;5.90;99.90;;;;;;4969297;28;20053;-61
2022/12/05 06:08:32;;;;;;;20.27;10.07;;;5.90;99.90;;;;;;4968527;28;20078;-62
2022/12/05 06:10:59;;;;;;;17.08;9.98;;;5.90;99.90;;;;;;4968987;28;20047;-62
2022/12/05 06:13:26;;;;;;;27.75;11.48;;;6.00;99.90;;;;;;4968561;28;20089;-61
2022/12/05 06:15:53;;;;;;;25.08;11.43;;;5.90;99.90;;;;;;4969067;28;20138;-62
2022/12/05 06:18:19;;;;;;;19.73;11.32;;;5.90;99.90;;;;;;4968115;28;20414;-67
2022/12/05 06:20:56;;;;;;;21.02;10.05;;;6.00;99.90;;;;;;4968714;28;20130;-62
2022/12/05 06:23:23;;;;;;;21.38;10.50;;;5.90;99.90;;;;;;4968979;28;20081;-61
2022/12/05 06:25:51;;;;;;;20.45;11.65;;;5.90;99.90;;;;;;4969093;28;20117;-62
2022/12/05 06:28:18;;;;;;;18.88;11.65;;;6.00;99.90;;;;;;4969172;28;20078;-62
2022/12/05 06:30:45;;;;;;;18.50;9.95;;;6.00;99.90;;;;;;4983719;28;20082;-62
2022/12/05 06:33:12;;;;;;;18.02;12.55;;;6.00;99.90;;;;;;4968659;28;20089;-62
2022/12/05 06:35:39;;;;;;;24.13;11.50;;;6.00;99.90;;;;;;4959328;28;20112;-62
2022/12/05 06:38:05;;;;;;;18.70;11.32;;;6.00;99.90;;;;;;4960273;28;20122;-62
2022/12/05 06:40:33;;;;;;;24.23;13.15;;;6.00;99.90;;;;;;4965971;28;20078;-62
2022/12/05 06:42:59;;;;;;;22.67;12.63;;;6.00;99.90;;;;;;4983496;28;20042;-60
2022/12/05 06:45:26;;;;;;;15.07;9.35;;;6.00;99.90;;;;;;4969041;28;20085;-61
2022/12/05 06:47:53;;;;;;;20.58;10.65;;;6.00;99.90;;;;;;4968629;28;20049;-62
2022/12/05 06:50:20;;;;;;;19.80;9.65;;;6.20;99.90;;;;;;4968798;28;20177;-62
2022/12/05 06:52:46;;;;;;;18.25;10.20;;;6.10;99.90;;;;;;4968749;28;20489;-61
2022/12/05 06:55:13;;;;;;;21.33;10.38;;;6.10;99.90;;;;;;4968815;28;20082;-61
2022/12/05 06:57:40;;;;;;;16.23;9.38;;;6.10;99.90;;;;;;4968604;28;20043;-61
2022/12/05 07:02:52;;;;;;;18.77;10.88;;;6.10;99.90;;;;;;4968337;28;20077;-61
2022/12/05 07:05:19;;;;;;;15.43;9.38;;;6.10;99.90;;;;;;4967839;28;20525;-61
2022/12/05 07:07:46;;;;;;;15.82;10.13;;;6.20;99.90;;;;;;4967528;28;20105;-61
2022/12/05 07:10:13;;;;;;;23.08;10.50;;;6.20;99.90;;;;;;4968643;28;20059;-61
2022/12/05 07:12:39;;;;;;;18.13;9.73;;;6.20;99.90;;;;;;4968330;28;20078;-61
2022/12/05 07:15:07;;;;;;;20.83;10.65;;;6.20;99.90;;;;;;4967369;28;20054;-62
2022/12/05 07:17:37;;;;;;;19.30;10.00;;;6.20;99.90;;;;;;4968254;28;20406;-61
2022/12/05 07:20:05;;;;;;;18.73;10.50;;;6.20;99.90;;;;;;4968252;28;20054;-61
2022/12/05 07:22:34;;;;;;;24.00;9.07;;;6.20;99.90;;;;;;4967503;28;20071;-63
2022/12/05 07:25:01;;;;;;;17.23;8.95;;;6.30;99.90;;;;;;4971626;28;20435;-62
2022/12/05 07:27:28;;;;;;;18.00;10.13;;;6.20;99.90;;;;;;4971636;28;20133;-64
2022/12/05 07:29:55;;;;;;;21.05;10.45;;;6.20;99.90;;;;;;4971674;28;20499;-62
2022/12/05 07:32:23;;;;;;;15.45;9.15;;;6.20;99.90;;;;;;4971871;28;20050;-63
2022/12/05 07:34:49;;;;;;;18.65;10.80;;;6.20;99.90;;;;;;4986712;28;20105;-62
2022/12/05 07:37:21;;;;;;;19.23;9.15;;;6.20;99.90;;;;;;4956599;28;20051;-62
2022/12/05 07:39:48;;;;;;;18.17;9.18;;;6.20;99.90;;;;;;4984920;28;20086;-60
2022/12/05 07:42:14;;;;;;;16.02;8.40;;;6.20;99.90;;;;;;4971390;28;20089;-60
2022/12/05 07:44:41;;;;;;;14.13;8.85;;;6.20;99.90;;;;;;4971230;28;20082;-59
2022/12/05 07:47:08;;;;;;;18.15;9.40;;;6.20;99.90;;;;;;4971285;28;20436;-60
2022/12/05 07:49:35;;;;;;;18.05;8.95;;;6.20;99.90;;;;;;4965559;28;20113;-60
2022/12/05 07:52:02;;;;;;;19.50;9.52;;;6.20;99.90;;;;;;4962088;28;20047;-60
2022/12/05 07:54:29;;;;;;;13.98;8.45;;;6.10;99.90;;;;;;4961413;28;20058;-59
2022/12/05 07:56:56;;;;;;;15.88;8.77;;;6.10;99.90;;;;;;4970813;28;20085;-60
2022/12/05 07:59:22;;;;;;;14.18;8.63;;;6.10;99.90;;;;;;4967160;28;20047;-60
2022/12/05 08:01:49;;;;;;;17.90;9.02;;;6.20;99.90;;;;;;4962003;28;20180;-61
2022/12/05 08:04:16;;;;;;;17.23;9.63;;;6.10;99.90;;;;;;4962170;28;20088;-62
2022/12/05 08:06:43;;;;;;;22.48;8.82;;;6.10;99.90;;;;;;4974619;28;20546;-59
2022/12/05 08:09:10;;;;;;;15.80;8.57;;;6.10;99.90;;;;;;4970022;28;20042;-60
2022/12/05 08:11:37;;;;;;;17.90;8.52;;;6.10;99.90;;;;;;4963582;28;20130;-59
2022/12/05 08:14:05;;;;;;;17.30;8.50;;;6.10;99.90;;;;;;4962550;28;20074;-59
2022/12/05 08:16:31;;;;;;;16.90;9.02;;;6.10;99.90;;;;;;4964597;28;20078;-61
2022/12/05 08:19:00;;;;;;;14.50;9.32;;;6.10;99.90;;;;;;4961066;28;20085;-60
2022/12/05 08:21:27;;;;;;;15.40;8.43;;;6.00;99.90;;;;;;4965516;28;20047;-61
2022/12/05 08:23:54;;;;;;;16.38;9.35;;;6.00;99.90;;;;;;4954248;28;20074;-60
2022/12/05 08:26:25;;;;;;;16.75;8.20;;;6.00;99.90;;;;;;4965844;28;20097;-60
2022/12/05 08:28:59;;;;;;;17.88;8.80;;;6.00;99.90;;;;;;4959556;28;20609;-59
2022/12/05 08:31:28;;;;;;;13.38;8.23;;;6.00;99.90;;;;;;4963063;28;20055;-60
2022/12/05 08:33:56;;;;;;;29.23;9.93;;;6.10;99.90;;;;;;4964497;28;20054;-58
2022/12/05 08:36:25;;;;;;;23.50;10.25;;;6.10;99.90;;;;;;4960047;28;20090;-59
2022/12/05 08:38:56;;;;;;;19.23;10.05;;;6.10;99.90;;;;;;4961567;28;20800;-59
2022/12/05 08:41:27;;;;;;;18.25;8.07;;;6.20;99.90;;;;;;4966939;28;20134;-60
2022/12/05 08:43:55;;;;;;;15.85;8.40;;;6.20;99.90;;;;;;4970445;28;20075;-60
2022/12/05 08:46:22;;;;;;;15.35;8.55;;;6.20;99.90;;;;;;4970463;28;20470;-60
2022/12/05 08:48:49;;;;;;;17.33;8.75;;;6.20;99.90;;;;;;4970453;28;20058;-58
2022/12/05 08:51:15;;;;;;;14.57;8.32;;;6.30;99.90;;;;;;4969944;28;20090;-60
2022/12/05 08:53:42;;;;;;;13.90;8.52;;;6.30;99.90;;;;;;4970394;28;20105;-60
2022/12/05 08:56:10;;;;;;;16.88;7.50;;;6.30;99.90;;;;;;4970218;28;20093;-59
2022/12/05 08:58:37;;;;;;;15.55;8.02;;;6.30;99.90;;;;;;4965329;28;20130;-61
2022/12/05 09:01:08;;;;;;;12.45;7.60;;;6.30;99.90;;;;;;4969857;28;20066;-60
2022/12/05 09:03:35;;;;;;;21.08;8.95;;;6.40;99.90;;;;;;4970165;28;20632;-60
2022/12/05 09:06:21;;;;;;;16.55;9.25;;;6.40;99.90;;;;;;4967456;28;20050;-60
2022/12/05 09:08:48;;;;;;;21.88;8.15;;;6.40;99.90;;;;;;4969879;28;20581;-59
2022/12/05 09:11:22;;;;;;;24.23;9.10;;;6.40;99.90;;;;;;4967824;28;20138;-60
2022/12/05 09:13:49;;;;;;;14.38;8.68;;;6.40;99.90;;;;;;4969856;28;20051;-61
2022/12/05 09:16:21;;;;;;;15.90;7.95;;;6.40;99.90;;;;;;4969948;28;20391;-60
2022/12/05 09:18:48;;;;;;;19.13;8.00;;;6.40;99.90;;;;;;4969486;28;20082;-60
2022/12/05 09:21:25;;;;;;;16.40;9.25;;;6.50;99.90;;;;;;4969680;28;20078;-59
2022/12/05 09:23:52;;;;;;;16.58;8.15;;;6.50;99.90;;;;;;4968322;28;20054;-59
2022/12/05 09:26:21;;;;;;;14.85;8.20;;;6.50;99.90;;;;;;4974956;28;20082;-59
2022/12/05 09:28:48;;;;;;;16.63;8.05;;;6.60;99.90;;;;;;4964995;28;20047;-59
2022/12/05 09:31:20;;;;;;;18.67;8.75;;;6.60;99.90;;;;;;4969947;28;20138;-59
2022/12/05 09:33:48;;;;;;;13.80;8.77;;;6.60;99.90;;;;;;4969478;28;20062;-59
2022/12/05 09:36:22;;;;;;;29.88;10.15;;;6.60;99.90;;;;;;4968510;28;20098;-60
2022/12/05 09:38:48;;;;;;;16.65;8.07;;;6.60;99.90;;;;;;4969225;28;20054;-59
2022/12/05 09:42:03;;;;;;;12.43;7.00;;;6.70;99.90;;;;;;4969831;28;20149;-59
2022/12/05 09:44:58;;;;;;;12.90;8.27;;;6.70;99.90;;;;;;4966481;28;20437;-60
2022/12/05 09:47:48;;;;;;;16.85;7.93;;;6.70;99.90;;;;;;4968242;28;20043;-61
2022/12/05 09:50:22;;;;;;;20.15;10.40;;;6.70;99.90;;;;;;4968943;28;20054;-61
2022/12/05 09:52:55;;;;;;;;;;;6.80;99.90;;;;;;4969725;28;20050;-59
2022/12/05 09:55:22;;;;;;;14.20;7.25;;;6.80;99.90;;;;;;4969327;28;19926;-59
2022/12/05 09:57:56;;;;;;;15.68;7.88;;;6.90;99.90;;;;;;4967918;28;20047;-59
2022/12/05 10:00:24;;;;;;;16.75;8.43;;;6.90;99.90;;;;;;4962092;28;20135;-60
2022/12/05 10:03:14;;;;;;;14.80;7.93;;;6.90;99.90;;;;;;4964745;28;20081;-60
2022/12/05 10:06:09;;;;;;;15.55;7.03;;;6.90;99.90;;;;;;4969458;28;20498;-59
2022/12/05 10:08:45;;;;;;;18.15;7.90;;;6.90;99.90;;;;;;4964723;28;20177;-60
2022/12/05 10:11:26;;;;;;;19.10;8.32;;;6.90;99.90;;;;;;4960067;28;20494;-60
2022/12/05 10:14:15;;;;;;;16.45;8.23;;;6.90;99.90;;;;;;4963157;28;20038;-61
2022/12/05 10:16:49;;;;;;;15.68;8.95;;;6.90;99.90;;;;;;4967905;28;20062;-61
2022/12/05 10:19:20;;;;;;;17.70;8.27;;;7.00;99.90;;;;;;4967472;28;20145;-61
2022/12/05 10:21:51;;;;;;;21.08;8.38;;;7.00;99.90;;;;;;4963657;28;20133;-61
2022/12/05 10:24:41;;;;;;;22.73;8.18;;;7.00;99.90;;;;;;4966798;28;20079;-59
2022/12/05 10:27:14;;;;;;;16.13;7.63;;;7.00;99.90;;;;;;4967746;28;20071;-59
2022/12/05 10:29:56;;;;;;;16.30;8.63;;;7.00;99.90;;;;;;4964626;28;20108;-59
2022/12/05 10:32:31;;;;;;;14.60;7.35;;;7.00;99.90;;;;;;4966920;28;20145;-59
2022/12/05 10:35:14;;;;;;;16.17;8.10;;;7.00;99.90;;;;;;4967603;28;20051;-59
2022/12/05 10:37:44;;;;;;;17.13;9.38;;;7.10;99.90;;;;;;4967853;28;20051;-60
2022/12/05 10:40:12;;;;;;;13.02;8.20;;;7.10;99.90;;;;;;4967711;28;20130;-59
2022/12/05 10:42:38;;;;;;;15.40;7.75;;;7.10;99.90;;;;;;4968754;28;20113;-59
2022/12/05 10:45:07;;;;;;;19.83;8.02;;;7.10;99.90;;;;;;4962905;28;20047;-60
2022/12/05 10:47:34;;;;;;;16.73;8.13;;;7.20;99.90;;;;;;4963437;28;20138;-60
2022/12/05 10:50:06;;;;;;;21.75;8.90;;;7.20;99.90;;;;;;4958761;28;20105;-60
2022/12/05 10:52:33;;;;;;;19.23;9.40;;;7.20;99.90;;;;;;4965730;28;20086;-60
2022/12/05 10:55:04;;;;;;;15.57;7.97;;;7.30;99.90;;;;;;4965907;28;20403;-59
2022/12/05 10:57:31;;;;;;;16.88;7.97;;;7.30;99.90;;;;;;4961719;28;20062;-59
2022/12/05 11:00:07;;;;;;;13.00;7.53;;;7.30;99.90;;;;;;4963058;28;20050;-59
2022/12/05 11:02:35;;;;;;;16.30;7.85;;;7.30;99.90;;;;;;4971535;28;20074;-59
2022/12/05 11:05:02;;;;;;;14.85;8.05;;;7.30;99.90;;;;;;4971284;28;20046;-59
2022/12/05 11:07:31;;;;;;;18.80;7.95;;;7.40;99.90;;;;;;4971319;28;20058;-60
2022/12/05 11:09:59;;;;;;;14.82;8.00;;;7.40;99.90;;;;;;4959684;28;20490;-60
2022/12/05 11:12:32;;;;;;;12.00;6.80;;;7.50;99.90;;;;;;4971536;28;20119;-61
2022/12/05 11:15:24;;;;;;;13.45;6.68;;;7.50;99.90;;;;;;4972333;28;20050;-61
2022/12/05 11:17:52;;;;;;;16.27;9.00;;;7.60;99.90;;;;;;4972432;28;20061;-59
2022/12/05 11:20:19;;;;;;;14.23;7.10;;;7.50;99.90;;;;;;4970299;28;20082;-63
2022/12/05 11:22:50;;;;;;;14.07;7.40;;;7.50;99.90;;;;;;4971937;28;20042;-59
2022/12/05 11:25:29;;;;;;;15.60;6.55;;;7.50;99.90;;;;;;4971618;28;20054;-59
2022/12/05 11:27:57;;;;;;;24.65;7.15;;;7.50;99.90;;;;;;4969913;28;20078;-59
2022/12/05 11:30:34;;;;;;;15.24;7.20;;;7.50;99.90;;;;;;4879350;28;10000616;-60
2022/12/05 11:33:20;;;;;;;14.18;7.13;;;7.50;99.90;;;;;;4968367;28;20267;-60
2022/12/05 11:35:46;;;;;;;;;;;7.50;99.90;;;;;;4968738;28;20074;-59
2022/12/05 11:38:14;;;;;;;15.45;7.00;;;7.50;99.90;;;;;;4963137;28;19961;-59
2022/12/05 11:41:34;;;;;;;15.55;7.57;;;7.50;99.90;;;;;;4953117;28;20059;-59
2022/12/05 11:44:22;;;;;;;18.50;8.07;;;7.50;99.90;;;;;;4904495;29;20143;-61
2022/12/05 11:47:04;;;;;;;18.80;7.38;;;7.60;99.90;;;;;;4954284;28;20129;-59
2022/12/05 11:49:34;;;;;;;12.48;7.10;;;7.60;99.90;;;;;;4959830;28;20114;-60
2022/12/05 11:52:06;;;;;;;11.65;6.93;;;7.50;99.90;;;;;;4958215;28;20104;-60
2022/12/05 11:54:57;;;;;;;16.55;7.07;;;7.50;99.90;;;;;;4963852;28;20541;-58
2022/12/05 11:57:35;;;;;;;15.13;6.70;;;7.50;99.90;;;;;;4967558;28;20078;-61
2022/12/05 12:00:09;;;;;;;13.85;7.70;;;7.50;99.90;;;;;;4969129;28;20053;-60
2022/12/05 12:02:39;;;;;;;;;;;7.50;99.90;;;;;;4968008;28;20082;-61
2022/12/05 12:05:25;;;;;;;14.05;6.93;;;7.50;99.90;;;;;;4969237;28;19929;-60
2022/12/05 12:08:20;;;;;;;17.05;7.60;;;7.60;99.90;;;;;;4967486;28;20043;-61
2022/12/05 12:10:47;;;;;;;;;;;7.70;99.90;;;;;;4968445;28;20050;-60
2022/12/05 12:13:50;;;;;;;15.63;7.57;;;7.70;99.90;;;;;;4968777;28;20044;-62
2022/12/05 12:16:42;;;;;;;19.48;8.93;;;7.80;99.90;;;;;;4948609;29;20503;-61
2022/12/05 12:19:15;;;;;;;16.25;7.75;;;7.80;99.90;;;;;;4966438;28;20055;-61
2022/12/05 12:22:00;;;;;;;24.48;9.10;;;7.80;99.90;;;;;;4968361;28;20050;-61
2022/12/05 12:24:36;;;;;;;14.02;7.00;;;7.90;99.90;;;;;;4959588;28;20078;-63
2022/12/05 12:27:15;;;;;;;19.15;8.48;;;8.00;99.90;;;;;;4948350;28;20047;-59
2022/12/05 12:29:48;;;;;;;14.05;8.30;;;8.00;99.90;;;;;;4957634;28;20114;-61
2022/12/05 12:32:39;;;;;;;18.17;8.23;;;8.10;99.90;;;;;;4959301;28;20042;-60
2022/12/05 12:35:25;;;;;;;14.73;8.15;;;8.10;99.90;;;;;;4967067;28;20129;-60
2022/12/05 12:38:27;;;;;;;14.93;7.20;;;8.20;99.90;;;;;;4968378;28;20061;-61
2022/12/05 12:40:56;;;;;;;22.02;9.85;;;8.20;99.90;;;;;;4956166;28;20082;-62
2022/12/05 12:43:31;;;;;;;10.98;6.90;;;8.20;99.90;;;;;;4959921;28;20054;-61
2022/12/05 12:46:24;;;;;;;;;;;8.10;99.90;;;;;;4964633;28;20219;-60
2022/12/05 12:49:07;;;;;;;22.38;6.97;;;8.20;99.90;;;;;;4959874;28;19922;-61
2022/12/05 12:51:45;;;;;;;15.45;7.70;;;8.20;99.90;;;;;;4960243;28;20093;-60
2022/12/05 12:54:51;;;;;;;12.27;6.30;;;8.20;99.90;;;;;;4958128;28;20310;-60
2022/12/05 12:57:54;;;;;;;13.63;6.97;;;8.10;99.90;;;;;;4956871;28;20589;-60
2022/12/05 13:00:42;;;;;;;15.15;6.20;;;8.00;99.90;;;;;;4957931;28;20054;-60
2022/12/05 13:03:16;;;;;;;13.05;6.07;;;8.00;99.90;;;;;;4957094;28;20055;-61
2022/12/05 13:05:46;;;;;;;10.73;6.05;;;8.00;99.90;;;;;;4964570;28;20447;-60
2022/12/05 13:08:22;;;;;;;16.33;5.88;;;8.00;99.90;;;;;;4958908;28;20141;-59
2022/12/05 13:10:49;;;;;;;12.00;5.82;;;8.00;99.90;;;;;;4966300;28;20058;-60
2022/12/05 13:13:21;;;;;;;12.95;6.05;;;8.00;99.90;;;;;;4966668;28;20137;-59
2022/12/05 13:15:53;;;;;;;11.88;5.40;;;8.00;99.90;;;;;;4966290;28;20061;-60